sensor_id;sensor_type;location;lat;lon;timestamp;pressure;altitude;pressure_sealevel;temperature;humidity
40490;BME280;26196;52.302;10.572;2022-12-24T00:03:28;99389.53;;;13.29;56.35
40490;BME280;26196;52.302;10.572;2022-12-24T00:07:29;99403.63;;;13.28;56.80
40490;BME280;26196;52.302;10.572;2022-12-24T00:11:29;99395.06;;;13.25;56.65
40490;BME280;26196;52.302;10.572;2022-12-24T00:15:29;99398.38;;;13.28;56.57
40490;BME280;26196;52.302;10.572;2022-12-24T00:19:30;99397.53;;;13.28;56.69
40490;BME280;26196;52.302;10.572;2022-12-24T00:23:30;99390.81;;;13.22;56.67
40490;BME280;26196;52.302;10.572;2022-12-24T00:27:30;99399.97;;;13.31;55.79
40490;BME280;26196;52.302;10.572;2022-12-24T00:31:30;99407.69;;;13.34;56.09
40490;BME280;26196;52.302;10.572;2022-12-24T00:35:35;99418.13;;;13.35;56.09
40490;BME280;26196;52.302;10.572;2022-12-24T00:39:35;99414.66;;;13.35;55.77
40490;BME280;26196;52.302;10.572;2022-12-24T00:43:36;99422.63;;;13.33;55.59
40490;BME280;26196;52.302;10.572;2022-12-24T00:47:36;99420.16;;;13.30;55.62
40490;BME280;26196;52.302;10.572;2022-12-24T00:51:37;99426.25;;;13.31;55.72
40490;BME280;26196;52.302;10.572;2022-12-24T00:55:37;99439.41;;;13.31;55.77
40490;BME280;26196;52.302;10.572;2022-12-24T00:59:37;99441.09;;;13.32;55.44
40490;BME280;26196;52.302;10.572;2022-12-24T01:03:38;99443.72;;;13.32;55.44
40490;BME280;26196;52.302;10.572;2022-12-24T01:07:43;99421.94;;;13.30;55.34
40490;BME280;26196;52.302;10.572;2022-12-24T01:11:43;99435.31;;;13.25;55.38
40490;BME280;26196;52.302;10.572;2022-12-24T01:15:45;99439.72;;;13.25;55.25
40490;BME280;26196;52.302;10.572;2022-12-24T01:19:46;99436.94;;;13.28;55.84
40490;BME280;26196;52.302;10.572;2022-12-24T01:23:46;99454.53;;;13.26;55.48
40490;BME280;26196;52.302;10.572;2022-12-24T01:27:47;99467.69;;;13.26;55.58
40490;BME280;26196;52.302;10.572;2022-12-24T01:31:47;99463.44;;;13.23;55.62
40490;BME280;26196;52.302;10.572;2022-12-24T01:35:47;99467.03;;;13.22;54.87
40490;BME280;26196;52.302;10.572;2022-12-24T01:39:48;99454.19;;;13.16;55.49
40490;BME280;26196;52.302;10.572;2022-12-24T01:43:48;99475.81;;;13.21;55.50
40490;BME280;26196;52.302;10.572;2022-12-24T01:47:49;99478.72;;;13.17;55.30
40490;BME280;26196;52.302;10.572;2022-12-24T01:52:01;99483.88;;;13.18;55.40
40490;BME280;26196;52.302;10.572;2022-12-24T01:56:02;99463.88;;;13.16;55.29
40490;BME280;26196;52.302;10.572;2022-12-24T02:00:09;99467.34;;;13.16;54.91
40490;BME280;26196;52.302;10.572;2022-12-24T02:04:27;99479.56;;;13.17;54.78
40490;BME280;26196;52.302;10.572;2022-12-24T02:08:29;99483.78;;;13.20;55.00
40490;BME280;26196;52.302;10.572;2022-12-24T02:12:39;99487.69;;;13.12;55.15
40490;BME280;26196;52.302;10.572;2022-12-24T02:30:07;99497.25;;;13.13;55.21
40490;BME280;26196;52.302;10.572;2022-12-24T02:34:38;99513.94;;;13.12;54.79
40490;BME280;26196;52.302;10.572;2022-12-24T02:38:47;99508.69;;;13.12;54.66
40490;BME280;26196;52.302;10.572;2022-12-24T02:42:54;99494.13;;;13.07;55.08
40490;BME280;26196;52.302;10.572;2022-12-24T02:46:57;99506.13;;;13.11;54.91
40490;BME280;26196;52.302;10.572;2022-12-24T02:51:07;99510.56;;;13.10;54.94
40490;BME280;26196;52.302;10.572;2022-12-24T02:55:21;99495.44;;;12.98;55.35
40490;BME280;26196;52.302;10.572;2022-12-24T02:59:38;99510.66;;;13.09;54.74
40490;BME280;26196;52.302;10.572;2022-12-24T03:08:10;99511.72;;;13.05;54.88
40490;BME280;26196;52.302;10.572;2022-12-24T03:12:23;99515.19;;;13.05;54.56
40490;BME280;26196;52.302;10.572;2022-12-24T03:16:26;99509.28;;;13.02;54.64
40490;BME280;26196;52.302;10.572;2022-12-24T03:20:37;99516.44;;;12.98;55.21
40490;BME280;26196;52.302;10.572;2022-12-24T03:24:38;99527.56;;;13.03;54.40
40490;BME280;26196;52.302;10.572;2022-12-24T03:28:39;99533.94;;;12.99;55.34
40490;BME280;26196;52.302;10.572;2022-12-24T03:32:40;99535.78;;;12.97;55.33
40490;BME280;26196;52.302;10.572;2022-12-24T03:36:41;99533.94;;;12.99;54.44
40490;BME280;26196;52.302;10.572;2022-12-24T03:40:42;99550.47;;;13.01;55.32
40490;BME280;26196;52.302;10.572;2022-12-24T03:44:42;99557.63;;;12.98;55.19
40490;BME280;26196;52.302;10.572;2022-12-24T03:48:43;99558.41;;;13.00;55.13
40490;BME280;26196;52.302;10.572;2022-12-24T03:52:43;99562.88;;;12.98;55.21
40490;BME280;26196;52.302;10.572;2022-12-24T03:56:43;99574.34;;;12.97;54.99
40490;BME280;26196;52.302;10.572;2022-12-24T04:00:44;99567.31;;;12.97;54.89
40490;BME280;26196;52.302;10.572;2022-12-24T04:04:44;99576.19;;;12.95;54.76
40490;BME280;26196;52.302;10.572;2022-12-24T04:08:45;99571.03;;;12.93;55.14
40490;BME280;26196;52.302;10.572;2022-12-24T04:12:45;99578.97;;;12.91;56.12
40490;BME280;26196;52.302;10.572;2022-12-24T04:16:45;99583.69;;;12.85;55.89
40490;BME280;26196;52.302;10.572;2022-12-24T04:20:46;99588.19;;;12.83;56.21
40490;BME280;26196;52.302;10.572;2022-12-24T04:24:46;99595.06;;;12.85;56.46
40490;BME280;26196;52.302;10.572;2022-12-24T04:28:47;99599.59;;;12.82;56.66
40490;BME280;26196;52.302;10.572;2022-12-24T04:32:47;99594.56;;;12.77;57.17
40490;BME280;26196;52.302;10.572;2022-12-24T04:36:47;99607.19;;;12.70;57.41
40490;BME280;26196;52.302;10.572;2022-12-24T04:40:48;99596.28;;;12.61;58.31
40490;BME280;26196;52.302;10.572;2022-12-24T04:44:48;99607.78;;;12.58;57.90
40490;BME280;26196;52.302;10.572;2022-12-24T04:48:50;99612.41;;;12.53;58.73
40490;BME280;26196;52.302;10.572;2022-12-24T04:52:51;99614.03;;;12.56;58.84
40490;BME280;26196;52.302;10.572;2022-12-24T04:56:51;99621.00;;;12.57;58.66
40490;BME280;26196;52.302;10.572;2022-12-24T05:00:52;99624.69;;;12.53;59.26
40490;BME280;26196;52.302;10.572;2022-12-24T05:04:52;99626.53;;;12.51;59.84
40490;BME280;26196;52.302;10.572;2022-12-24T05:08:54;99634.09;;;12.39;60.05
40490;BME280;26196;52.302;10.572;2022-12-24T05:12:55;99647.16;;;12.41;60.28
40490;BME280;26196;52.302;10.572;2022-12-24T05:16:55;99647.28;;;12.38;60.60
40490;BME280;26196;52.302;10.572;2022-12-24T05:20:55;99653.47;;;12.37;60.50
40490;BME280;26196;52.302;10.572;2022-12-24T05:24:55;99669.91;;;12.40;60.82
40490;BME280;26196;52.302;10.572;2022-12-24T05:29:15;99677.09;;;12.37;61.34
40490;BME280;26196;52.302;10.572;2022-12-24T05:33:15;99687.75;;;12.34;61.04
40490;BME280;26196;52.302;10.572;2022-12-24T05:37:16;99688.63;;;12.33;61.11
40490;BME280;26196;52.302;10.572;2022-12-24T05:41:17;99694.53;;;12.38;60.75
40490;BME280;26196;52.302;10.572;2022-12-24T05:45:17;99697.25;;;12.36;60.96
40490;BME280;26196;52.302;10.572;2022-12-24T05:49:18;99707.78;;;12.35;60.83
40490;BME280;26196;52.302;10.572;2022-12-24T05:53:18;99712.06;;;12.37;61.19
40490;BME280;26196;52.302;10.572;2022-12-24T05:57:19;99723.38;;;12.38;60.65
40490;BME280;26196;52.302;10.572;2022-12-24T06:01:21;99726.16;;;12.35;60.92
40490;BME280;26196;52.302;10.572;2022-12-24T06:05:21;99728.63;;;12.38;61.17
40490;BME280;26196;52.302;10.572;2022-12-24T06:09:22;99737.38;;;12.38;61.56
40490;BME280;26196;52.302;10.572;2022-12-24T06:13:23;99743.63;;;12.36;61.35
40490;BME280;26196;52.302;10.572;2022-12-24T06:17:23;99754.03;;;12.37;61.18
40490;BME280;26196;52.302;10.572;2022-12-24T06:21:24;99755.19;;;12.32;61.75
40490;BME280;26196;52.302;10.572;2022-12-24T06:25:24;99757.81;;;12.32;61.99
40490;BME280;26196;52.302;10.572;2022-12-24T06:29:25;99767.16;;;12.37;61.27
40490;BME280;26196;52.302;10.572;2022-12-24T06:33:25;99770.00;;;12.33;61.70
40490;BME280;26196;52.302;10.572;2022-12-24T06:37:26;99782.22;;;12.34;61.22
40490;BME280;26196;52.302;10.572;2022-12-24T06:41:26;99785.03;;;12.29;61.66
40490;BME280;26196;52.302;10.572;2022-12-24T06:45:27;99792.97;;;12.27;61.92
40490;BME280;26196;52.302;10.572;2022-12-24T06:49:27;99786.03;;;12.26;62.17
40490;BME280;26196;52.302;10.572;2022-12-24T06:53:28;99789.59;;;12.25;61.75
40490;BME280;26196;52.302;10.572;2022-12-24T06:57:28;99798.78;;;12.34;61.36
40490;BME280;26196;52.302;10.572;2022-12-24T07:01:30;99813.91;;;12.48;60.70
40490;BME280;26196;52.302;10.572;2022-12-24T07:05:31;99812.34;;;12.44;61.01
40490;BME280;26196;52.302;10.572;2022-12-24T07:09:31;99826.38;;;12.43;61.77
40490;BME280;26196;52.302;10.572;2022-12-24T07:13:32;99829.00;;;12.43;61.63
40490;BME280;26196;52.302;10.572;2022-12-24T07:17:33;99835.25;;;12.40;61.74
40490;BME280;26196;52.302;10.572;2022-12-24T07:21:33;99841.06;;;12.66;60.64
40490;BME280;26196;52.302;10.572;2022-12-24T07:25:34;99850.03;;;12.62;60.96
40490;BME280;26196;52.302;10.572;2022-12-24T07:29:34;99853.41;;;12.45;61.36
40490;BME280;26196;52.302;10.572;2022-12-24T07:33:34;99864.13;;;12.40;62.25
40490;BME280;26196;52.302;10.572;2022-12-24T07:37:35;99858.81;;;12.42;61.73
40490;BME280;26196;52.302;10.572;2022-12-24T07:41:35;99877.97;;;12.44;61.46
40490;BME280;26196;52.302;10.572;2022-12-24T07:45:35;99877.50;;;12.55;61.15
40490;BME280;26196;52.302;10.572;2022-12-24T07:49:36;99893.03;;;12.59;61.01
40490;BME280;26196;52.302;10.572;2022-12-24T07:53:36;99906.72;;;12.66;61.30
40490;BME280;26196;52.302;10.572;2022-12-24T07:57:37;99911.06;;;12.67;60.51
40490;BME280;26196;52.302;10.572;2022-12-24T08:01:37;99903.09;;;12.68;60.46
40490;BME280;26196;52.302;10.572;2022-12-24T08:05:38;99919.50;;;12.74;60.27
40490;BME280;26196;52.302;10.572;2022-12-24T08:09:38;99929.06;;;12.75;60.25
40490;BME280;26196;52.302;10.572;2022-12-24T08:13:39;99938.59;;;12.77;60.21
40490;BME280;26196;52.302;10.572;2022-12-24T08:17:39;99950.47;;;12.67;61.00
40490;BME280;26196;52.302;10.572;2022-12-24T08:21:40;99951.69;;;12.58;60.65
40490;BME280;26196;52.302;10.572;2022-12-24T08:25:42;99969.38;;;12.55;60.98
40490;BME280;26196;52.302;10.572;2022-12-24T08:29:43;99961.81;;;12.67;60.29
40490;BME280;26196;52.302;10.572;2022-12-24T08:33:43;99969.28;;;12.56;61.25
40490;BME280;26196;52.302;10.572;2022-12-24T08:37:44;99975.59;;;12.52;61.05
40490;BME280;26196;52.302;10.572;2022-12-24T08:41:44;99980.19;;;12.47;61.32
40490;BME280;26196;52.302;10.572;2022-12-24T08:45:45;99988.06;;;12.47;61.21
40490;BME280;26196;52.302;10.572;2022-12-24T08:49:46;99980.25;;;12.45;62.03
40490;BME280;26196;52.302;10.572;2022-12-24T08:53:46;100000.22;;;12.50;61.56
40490;BME280;26196;52.302;10.572;2022-12-24T08:57:47;100000.88;;;12.55;61.05
40490;BME280;26196;52.302;10.572;2022-12-24T09:01:47;99983.88;;;12.43;61.72
40490;BME280;26196;52.302;10.572;2022-12-24T09:05:47;100008.28;;;12.45;61.43
40490;BME280;26196;52.302;10.572;2022-12-24T09:09:48;100009.88;;;12.49;61.88
40490;BME280;26196;52.302;10.572;2022-12-24T09:13:48;100022.84;;;12.52;61.75
40490;BME280;26196;52.302;10.572;2022-12-24T09:17:49;100020.22;;;12.52;61.91
40490;BME280;26196;52.302;10.572;2022-12-24T09:21:49;100032.28;;;12.77;60.34
40490;BME280;26196;52.302;10.572;2022-12-24T09:25:49;100035.41;;;12.85;60.65
40490;BME280;26196;52.302;10.572;2022-12-24T09:29:50;100045.53;;;12.94;60.95
40490;BME280;26196;52.302;10.572;2022-12-24T09:33:50;100050.13;;;12.89;62.00
40490;BME280;26196;52.302;10.572;2022-12-24T09:37:51;100050.53;;;12.80;62.25
40490;BME280;26196;52.302;10.572;2022-12-24T09:42:25;100049.16;;;12.91;61.71
40490;BME280;26196;52.302;10.572;2022-12-24T09:46:34;100059.72;;;12.90;62.27
40490;BME280;26196;52.302;10.572;2022-12-24T09:50:41;100062.47;;;12.87;61.68
40490;BME280;26196;52.302;10.572;2022-12-24T09:54:48;100078.75;;;12.95;61.63
40490;BME280;26196;52.302;10.572;2022-12-24T09:58:59;100079.63;;;12.96;62.38
40490;BME280;26196;52.302;10.572;2022-12-24T10:03:12;100081.38;;;12.95;62.52
40490;BME280;26196;52.302;10.572;2022-12-24T10:12:17;100094.78;;;13.09;61.41
40490;BME280;26196;52.302;10.572;2022-12-24T10:20:49;100099.53;;;13.01;62.10
40490;BME280;26196;52.302;10.572;2022-12-24T10:25:13;100111.06;;;12.97;62.59
40490;BME280;26196;52.302;10.572;2022-12-24T10:29:21;100120.66;;;12.98;62.28
40490;BME280;26196;52.302;10.572;2022-12-24T10:33:31;100113.97;;;12.91;63.04
40490;BME280;26196;52.302;10.572;2022-12-24T10:37:34;100117.41;;;12.93;63.27
40490;BME280;26196;52.302;10.572;2022-12-24T10:41:34;100124.34;;;12.94;63.45
40490;BME280;26196;52.302;10.572;2022-12-24T10:45:38;100123.53;;;12.92;63.78
40490;BME280;26196;52.302;10.572;2022-12-24T10:49:47;100118.38;;;12.90;62.87
40490;BME280;26196;52.302;10.572;2022-12-24T10:54:05;100125.06;;;12.98;63.00
40490;BME280;26196;52.302;10.572;2022-12-24T10:58:12;100134.84;;;12.94;63.76
40490;BME280;26196;52.302;10.572;2022-12-24T11:02:28;100130.25;;;12.99;63.31
40490;BME280;26196;52.302;10.572;2022-12-24T11:06:29;100136.63;;;12.94;64.09
40490;BME280;26196;52.302;10.572;2022-12-24T11:10:32;100131.16;;;12.98;63.84
40490;BME280;26196;52.302;10.572;2022-12-24T11:14:36;100133.00;;;12.96;63.55
40490;BME280;26196;52.302;10.572;2022-12-24T11:18:47;100131.75;;;13.05;63.42
40490;BME280;26196;52.302;10.572;2022-12-24T11:22:49;100134.44;;;13.03;63.67
40490;BME280;26196;52.302;10.572;2022-12-24T11:26:49;100140.44;;;13.07;63.21
40490;BME280;26196;52.302;10.572;2022-12-24T11:35:22;100145.56;;;13.10;63.37
40490;BME280;26196;52.302;10.572;2022-12-24T11:39:24;100142.97;;;13.08;63.97
40490;BME280;26196;52.302;10.572;2022-12-24T11:43:25;100152.63;;;13.08;64.28
40490;BME280;26196;52.302;10.572;2022-12-24T11:47:43;100157.03;;;13.07;64.18
40490;BME280;26196;52.302;10.572;2022-12-24T11:52:20;100156.06;;;13.10;63.94
40490;BME280;26196;52.302;10.572;2022-12-24T11:56:48;100142.00;;;13.11;64.32
40490;BME280;26196;52.302;10.572;2022-12-24T12:00:49;100152.97;;;13.21;63.72
40490;BME280;26196;52.302;10.572;2022-12-24T12:04:57;100143.78;;;13.31;64.18
40490;BME280;26196;52.302;10.572;2022-12-24T12:09:28;100140.13;;;13.35;64.39
40490;BME280;26196;52.302;10.572;2022-12-24T12:13:31;100158.09;;;13.44;64.42
40490;BME280;26196;52.302;10.572;2022-12-24T12:17:39;100150.41;;;13.40;64.69
40490;BME280;26196;52.302;10.572;2022-12-24T12:21:46;100164.47;;;13.39;65.33
40490;BME280;26196;52.302;10.572;2022-12-24T12:25:58;100166.13;;;13.41;65.59
40490;BME280;26196;52.302;10.572;2022-12-24T12:30:13;100177.22;;;13.48;65.65
40490;BME280;26196;52.302;10.572;2022-12-24T12:34:28;100175.34;;;13.50;65.97
40490;BME280;26196;52.302;10.572;2022-12-24T12:38:30;100168.41;;;13.49;66.29
40490;BME280;26196;52.302;10.572;2022-12-24T12:42:36;100175.31;;;13.51;67.33
40490;BME280;26196;52.302;10.572;2022-12-24T12:55:46;100199.53;;;13.58;65.78
40490;BME280;26196;52.302;10.572;2022-12-24T12:59:30;100216.19;;;13.59;66.53
40490;BME280;26196;52.302;10.572;2022-12-24T13:12:26;100218.59;;;13.63;66.17
40490;BME280;26196;52.302;10.572;2022-12-24T13:20:45;100222.09;;;13.64;65.00
40490;BME280;26196;52.302;10.572;2022-12-24T13:24:53;100220.97;;;13.69;63.86
40490;BME280;26196;52.302;10.572;2022-12-24T13:29:57;100238.94;;;13.60;65.16
40490;BME280;26196;52.302;10.572;2022-12-24T13:37:38;100243.72;;;13.50;66.09
40490;BME280;26196;52.302;10.572;2022-12-24T13:41:48;100249.97;;;13.47;66.09
40490;BME280;26196;52.302;10.572;2022-12-24T13:45:50;100264.19;;;13.43;65.65
40490;BME280;26196;52.302;10.572;2022-12-24T13:49:52;100263.44;;;13.40;65.29
40490;BME280;26196;52.302;10.572;2022-12-24T13:53:57;100272.31;;;13.37;65.56
40490;BME280;26196;52.302;10.572;2022-12-24T13:58:01;100274.44;;;13.49;64.13
40490;BME280;26196;52.302;10.572;2022-12-24T14:02:03;100274.28;;;13.52;65.55
40490;BME280;26196;52.302;10.572;2022-12-24T14:06:09;100274.56;;;13.46;64.93
40490;BME280;26196;52.302;10.572;2022-12-24T14:10:22;100284.38;;;13.43;65.79
40490;BME280;26196;52.302;10.572;2022-12-24T14:14:29;100277.56;;;13.37;66.23
40490;BME280;26196;52.302;10.572;2022-12-24T14:18:37;100276.66;;;13.38;66.21
40490;BME280;26196;52.302;10.572;2022-12-24T14:22:44;100277.53;;;13.39;66.36
40490;BME280;26196;52.302;10.572;2022-12-24T14:26:55;100277.38;;;13.42;66.35
40490;BME280;26196;52.302;10.572;2022-12-24T14:31:03;100269.44;;;13.43;66.71
40490;BME280;26196;52.302;10.572;2022-12-24T14:35:25;100281.66;;;13.44;66.55
40490;BME280;26196;52.302;10.572;2022-12-24T14:39:30;100323.66;;;13.46;66.81
40490;BME280;26196;52.302;10.572;2022-12-24T14:43:59;100354.59;;;13.39;64.49
40490;BME280;26196;52.302;10.572;2022-12-24T14:48:24;100356.75;;;13.29;65.26
40490;BME280;26196;52.302;10.572;2022-12-24T14:52:47;100350.88;;;13.23;65.45
40490;BME280;26196;52.302;10.572;2022-12-24T15:01:23;100356.94;;;13.25;65.51
40490;BME280;26196;52.302;10.572;2022-12-24T15:05:25;100369.19;;;13.24;65.95
40490;BME280;26196;52.302;10.572;2022-12-24T15:09:29;100377.97;;;13.25;65.57
40490;BME280;26196;52.302;10.572;2022-12-24T15:13:34;100392.94;;;13.23;65.16
40490;BME280;26196;52.302;10.572;2022-12-24T15:17:35;100396.25;;;13.28;64.92
40490;BME280;26196;52.302;10.572;2022-12-24T15:21:37;100386.69;;;13.25;64.46
40490;BME280;26196;52.302;10.572;2022-12-24T15:25:43;100378.97;;;13.21;64.09
40490;BME280;26196;52.302;10.572;2022-12-24T15:29:44;100394.84;;;13.19;64.16
40490;BME280;26196;52.302;10.572;2022-12-24T15:33:47;100393.28;;;13.13;64.42
40490;BME280;26196;52.302;10.572;2022-12-24T15:37:48;100397.56;;;13.16;64.99
40490;BME280;26196;52.302;10.572;2022-12-24T15:41:48;100397.50;;;13.18;65.17
40490;BME280;26196;52.302;10.572;2022-12-24T15:46:07;100399.34;;;13.16;64.68
40490;BME280;26196;52.302;10.572;2022-12-24T15:50:28;100412.47;;;13.16;64.88
40490;BME280;26196;52.302;10.572;2022-12-24T15:54:30;100422.97;;;13.16;65.11
40490;BME280;26196;52.302;10.572;2022-12-24T15:58:40;100419.47;;;13.17;65.37
40490;BME280;26196;52.302;10.572;2022-12-24T16:12:38;100423.84;;;13.16;65.50
40490;BME280;26196;52.302;10.572;2022-12-24T16:16:42;100442.06;;;13.21;65.80
40490;BME280;26196;52.302;10.572;2022-12-24T16:20:48;100440.94;;;13.28;64.16
40490;BME280;26196;52.302;10.572;2022-12-24T16:24:49;100450.41;;;13.32;65.20
40490;BME280;26196;52.302;10.572;2022-12-24T16:28:51;100446.88;;;13.33;65.16
40490;BME280;26196;52.302;10.572;2022-12-24T16:32:51;100452.97;;;13.33;65.31
40490;BME280;26196;52.302;10.572;2022-12-24T16:36:52;100445.94;;;13.34;64.86
40490;BME280;26196;52.302;10.572;2022-12-24T16:40:52;100452.00;;;13.36;64.76
40490;BME280;26196;52.302;10.572;2022-12-24T16:44:53;100452.84;;;13.37;64.83
40490;BME280;26196;52.302;10.572;2022-12-24T16:48:54;100456.59;;;13.31;65.24
40490;BME280;26196;52.302;10.572;2022-12-24T16:52:55;100462.47;;;13.38;64.44
40490;BME280;26196;52.302;10.572;2022-12-24T16:56:55;100468.63;;;13.37;65.21
40490;BME280;26196;52.302;10.572;2022-12-24T17:00:55;100473.97;;;13.35;65.02
40490;BME280;26196;52.302;10.572;2022-12-24T17:04:56;100481.72;;;13.38;65.31
40490;BME280;26196;52.302;10.572;2022-12-24T17:08:56;100486.13;;;13.38;64.85
40490;BME280;26196;52.302;10.572;2022-12-24T17:12:57;100490.28;;;13.43;64.97
40490;BME280;26196;52.302;10.572;2022-12-24T17:16:57;100481.66;;;13.40;65.29
40490;BME280;26196;52.302;10.572;2022-12-24T17:21:01;100501.78;;;13.41;65.26
40490;BME280;26196;52.302;10.572;2022-12-24T17:25:03;100511.44;;;13.40;63.98
40490;BME280;26196;52.302;10.572;2022-12-24T17:29:04;100505.38;;;13.38;64.84
40490;BME280;26196;52.302;10.572;2022-12-24T17:33:04;100515.81;;;13.40;64.88
40490;BME280;26196;52.302;10.572;2022-12-24T17:37:05;100518.41;;;13.41;64.18
40490;BME280;26196;52.302;10.572;2022-12-24T17:41:07;100512.34;;;13.39;63.91
40490;BME280;26196;52.302;10.572;2022-12-24T17:45:09;100519.44;;;13.37;64.46
40490;BME280;26196;52.302;10.572;2022-12-24T17:49:11;100529.19;;;13.35;63.76
40490;BME280;26196;52.302;10.572;2022-12-24T17:53:12;100517.69;;;13.38;64.26
40490;BME280;26196;52.302;10.572;2022-12-24T17:57:12;100521.28;;;13.35;64.01
40490;BME280;26196;52.302;10.572;2022-12-24T18:01:15;100517.78;;;13.34;64.02
40490;BME280;26196;52.302;10.572;2022-12-24T18:05:16;100510.88;;;13.32;64.32
40490;BME280;26196;52.302;10.572;2022-12-24T18:09:17;100517.31;;;13.47;61.56
40490;BME280;26196;52.302;10.572;2022-12-24T18:13:17;100522.06;;;13.37;63.25
40490;BME280;26196;52.302;10.572;2022-12-24T18:17:18;100521.34;;;13.33;62.82
40490;BME280;26196;52.302;10.572;2022-12-24T18:21:20;100531.91;;;13.32;62.04
40490;BME280;26196;52.302;10.572;2022-12-24T18:25:21;100548.72;;;13.28;61.47
40490;BME280;26196;52.302;10.572;2022-12-24T18:29:22;100553.97;;;13.28;62.04
40490;BME280;26196;52.302;10.572;2022-12-24T18:33:22;100562.75;;;13.27;61.50
40490;BME280;26196;52.302;10.572;2022-12-24T18:37:23;100569.03;;;13.23;61.02
40490;BME280;26196;52.302;10.572;2022-12-24T18:41:28;100565.59;;;13.21;61.01
40490;BME280;26196;52.302;10.572;2022-12-24T18:45:29;100565.66;;;13.19;62.01
40490;BME280;26196;52.302;10.572;2022-12-24T18:49:29;100573.56;;;13.19;61.13
40490;BME280;26196;52.302;10.572;2022-12-24T18:53:30;100564.84;;;13.17;60.91
40490;BME280;26196;52.302;10.572;2022-12-24T18:57:30;100572.75;;;13.17;61.08
40490;BME280;26196;52.302;10.572;2022-12-24T19:01:33;100578.00;;;13.17;60.56
40490;BME280;26196;52.302;10.572;2022-12-24T19:05:36;100573.75;;;13.13;60.45
40490;BME280;26196;52.302;10.572;2022-12-24T19:09:36;100580.78;;;13.12;59.55
40490;BME280;26196;52.302;10.572;2022-12-24T19:13:37;100572.22;;;13.07;60.05
40490;BME280;26196;52.302;10.572;2022-12-24T19:17:37;100567.94;;;13.05;59.19
40490;BME280;26196;52.302;10.572;2022-12-24T19:21:38;100568.09;;;13.00;58.89
40490;BME280;26196;52.302;10.572;2022-12-24T19:25:38;100562.03;;;12.98;60.32
40490;BME280;26196;52.302;10.572;2022-12-24T19:29:38;100568.91;;;13.02;60.27
40490;BME280;26196;52.302;10.572;2022-12-24T19:33:44;100579.44;;;13.01;60.49
40490;BME280;26196;52.302;10.572;2022-12-24T19:37:45;100588.22;;;13.01;60.51
40490;BME280;26196;52.302;10.572;2022-12-24T19:41:45;100583.75;;;13.03;59.77
40490;BME280;26196;52.302;10.572;2022-12-24T19:45:45;100589.91;;;13.02;60.34
40490;BME280;26196;52.302;10.572;2022-12-24T19:49:46;100592.66;;;12.99;59.87
40490;BME280;26196;52.302;10.572;2022-12-24T19:53:46;100600.44;;;13.02;59.79
40490;BME280;26196;52.302;10.572;2022-12-24T19:57:47;100608.28;;;13.04;59.68
40490;BME280;26196;52.302;10.572;2022-12-24T20:01:47;100603.06;;;13.02;60.20
40490;BME280;26196;52.302;10.572;2022-12-24T20:05:48;100614.41;;;13.03;60.11
40490;BME280;26196;52.302;10.572;2022-12-24T20:09:49;100611.06;;;12.99;59.88
40490;BME280;26196;52.302;10.572;2022-12-24T20:13:49;100615.63;;;12.94;59.98
40490;BME280;26196;52.302;10.572;2022-12-24T20:17:50;100633.16;;;12.94;59.08
40490;BME280;26196;52.302;10.572;2022-12-24T20:21:51;100626.16;;;12.92;59.54
40490;BME280;26196;52.302;10.572;2022-12-24T20:25:56;100627.91;;;12.94;59.49
40490;BME280;26196;52.302;10.572;2022-12-24T20:29:58;100635.81;;;12.92;59.57
40490;BME280;26196;52.302;10.572;2022-12-24T20:34:00;100637.75;;;12.87;59.34
40490;BME280;26196;52.302;10.572;2022-12-24T20:38:01;100643.81;;;12.89;59.50
40490;BME280;26196;52.302;10.572;2022-12-24T20:42:02;100641.22;;;12.87;59.46
40490;BME280;26196;52.302;10.572;2022-12-24T20:46:04;100657.91;;;12.86;58.94
40490;BME280;26196;52.302;10.572;2022-12-24T20:50:05;100658.75;;;12.87;59.11
40490;BME280;26196;52.302;10.572;2022-12-24T20:54:05;100661.47;;;12.85;58.72
40490;BME280;26196;52.302;10.572;2022-12-24T20:58:06;100676.34;;;12.85;59.03
40490;BME280;26196;52.302;10.572;2022-12-24T21:02:10;100673.94;;;12.79;58.86
40490;BME280;26196;52.302;10.572;2022-12-24T21:06:11;100678.22;;;12.81;58.75
40490;BME280;26196;52.302;10.572;2022-12-24T21:10:13;100692.28;;;12.80;58.47
40490;BME280;26196;52.302;10.572;2022-12-24T21:14:15;100682.81;;;12.75;58.72
40490;BME280;26196;52.302;10.572;2022-12-24T21:18:15;100682.72;;;12.78;58.63
40490;BME280;26196;52.302;10.572;2022-12-24T21:22:16;100690.63;;;12.78;58.08
40490;BME280;26196;52.302;10.572;2022-12-24T21:26:16;100691.56;;;12.75;58.46
40490;BME280;26196;52.302;10.572;2022-12-24T21:30:17;100690.06;;;12.68;58.59
40490;BME280;26196;52.302;10.572;2022-12-24T21:34:17;100698.63;;;12.73;57.95
40490;BME280;26196;52.302;10.572;2022-12-24T21:38:17;100694.34;;;12.70;58.64
40490;BME280;26196;52.302;10.572;2022-12-24T21:42:18;100690.16;;;12.65;58.08
40490;BME280;26196;52.302;10.572;2022-12-24T21:46:21;100688.34;;;12.67;57.46
40490;BME280;26196;52.302;10.572;2022-12-24T21:50:23;100690.19;;;12.63;58.13
40490;BME280;26196;52.302;10.572;2022-12-24T21:54:42;100691.00;;;12.65;57.91
40490;BME280;26196;52.302;10.572;2022-12-24T21:58:43;100692.81;;;12.63;57.44
40490;BME280;26196;52.302;10.572;2022-12-24T22:02:44;100682.41;;;12.60;57.49
40490;BME280;26196;52.302;10.572;2022-12-24T22:06:45;100691.94;;;12.64;57.78
40490;BME280;26196;52.302;10.572;2022-12-24T22:11:03;100691.13;;;12.62;57.51
40490;BME280;26196;52.302;10.572;2022-12-24T22:15:30;100692.94;;;12.60;56.79